sensor_id;sensor_type;location;lat;lon;timestamp;P1;durP1;ratioP1;P2;durP2;ratioP2
21430;SDS011;10876;49.038;10.608;2022-08-30T00:00:05;9.23;;;6.28;;
21430;SDS011;10876;49.038;10.608;2022-08-30T00:02:51;8.48;;;6.22;;
21430;SDS011;10876;49.038;10.608;2022-08-30T00:05:18;7.75;;;5.57;;
21430;SDS011;10876;49.038;10.608;2022-08-30T00:07:47;8.07;;;5.57;;
21430;SDS011;10876;49.038;10.608;2022-08-30T00:10:14;15.82;;;6.30;;
21430;SDS011;10876;49.038;10.608;2022-08-30T00:12:42;8.02;;;5.47;;
21430;SDS011;10876;49.038;10.608;2022-08-30T00:15:09;8.30;;;6.07;;
21430;SDS011;10876;49.038;10.608;2022-08-30T00:17:38;8.10;;;5.53;;
21430;SDS011;10876;49.038;10.608;2022-08-30T00:20:08;7.13;;;5.78;;
21430;SDS011;10876;49.038;10.608;2022-08-30T00:22:37;9.02;;;5.45;;
21430;SDS011;10876;49.038;10.608;2022-08-30T00:25:07;9.25;;;6.05;;
21430;SDS011;10876;49.038;10.608;2022-08-30T00:27:34;8.68;;;6.13;;
21430;SDS011;10876;49.038;10.608;2022-08-30T00:30:01;9.15;;;5.45;;
21430;SDS011;10876;49.038;10.608;2022-08-30T00:32:28;6.75;;;4.97;;
21430;SDS011;10876;49.038;10.608;2022-08-30T00:34:55;9.25;;;5.82;;
21430;SDS011;10876;49.038;10.608;2022-08-30T00:37:22;7.43;;;5.40;;
21430;SDS011;10876;49.038;10.608;2022-08-30T00:39:49;8.13;;;5.95;;
21430;SDS011;10876;49.038;10.608;2022-08-30T00:42:19;9.52;;;5.68;;
21430;SDS011;10876;49.038;10.608;2022-08-30T00:44:46;9.40;;;6.05;;
21430;SDS011;10876;49.038;10.608;2022-08-30T00:47:14;8.25;;;5.78;;
21430;SDS011;10876;49.038;10.608;2022-08-30T00:49:42;8.00;;;5.78;;
21430;SDS011;10876;49.038;10.608;2022-08-30T00:52:13;11.20;;;6.15;;
21430;SDS011;10876;49.038;10.608;2022-08-30T00:54:41;8.23;;;6.05;;
21430;SDS011;10876;49.038;10.608;2022-08-30T00:57:10;8.32;;;6.18;;
21430;SDS011;10876;49.038;10.608;2022-08-30T00:59:41;11.80;;;6.35;;
21430;SDS011;10876;49.038;10.608;2022-08-30T01:02:10;8.13;;;6.00;;
21430;SDS011;10876;49.038;10.608;2022-08-30T01:04:38;9.57;;;6.00;;
21430;SDS011;10876;49.038;10.608;2022-08-30T01:07:08;9.18;;;6.03;;
21430;SDS011;10876;49.038;10.608;2022-08-30T01:09:35;9.35;;;6.43;;
21430;SDS011;10876;49.038;10.608;2022-08-30T01:12:02;8.40;;;6.05;;
21430;SDS011;10876;49.038;10.608;2022-08-30T01:14:31;9.48;;;6.03;;
21430;SDS011;10876;49.038;10.608;2022-08-30T01:17:00;9.52;;;6.35;;
21430;SDS011;10876;49.038;10.608;2022-08-30T01:19:30;9.13;;;5.97;;
21430;SDS011;10876;49.038;10.608;2022-08-30T01:22:03;7.10;;;5.60;;
21430;SDS011;10876;49.038;10.608;2022-08-30T01:24:37;8.10;;;6.03;;
21430;SDS011;10876;49.038;10.608;2022-08-30T01:27:04;10.48;;;5.90;;
21430;SDS011;10876;49.038;10.608;2022-08-30T01:29:31;8.43;;;6.60;;
21430;SDS011;10876;49.038;10.608;2022-08-30T01:31:58;8.75;;;5.90;;
21430;SDS011;10876;49.038;10.608;2022-08-30T01:34:25;8.10;;;5.90;;
21430;SDS011;10876;49.038;10.608;2022-08-30T01:36:52;10.60;;;6.30;;
21430;SDS011;10876;49.038;10.608;2022-08-30T01:39:19;9.20;;;6.35;;
21430;SDS011;10876;49.038;10.608;2022-08-30T01:41:47;8.02;;;5.47;;
21430;SDS011;10876;49.038;10.608;2022-08-30T01:44:14;7.43;;;5.40;;
21430;SDS011;10876;49.038;10.608;2022-08-30T01:46:43;8.77;;;6.07;;
21430;SDS011;10876;49.038;10.608;2022-08-30T01:49:12;8.50;;;6.05;;
21430;SDS011;10876;49.038;10.608;2022-08-30T01:51:42;8.38;;;6.18;;
21430;SDS011;10876;49.038;10.608;2022-08-30T01:54:09;10.00;;;6.63;;
21430;SDS011;10876;49.038;10.608;2022-08-30T01:56:37;7.25;;;5.90;;
21430;SDS011;10876;49.038;10.608;2022-08-30T01:59:05;8.77;;;6.28;;
21430;SDS011;10876;49.038;10.608;2022-08-30T02:01:33;11.65;;;5.88;;
21430;SDS011;10876;49.038;10.608;2022-08-30T02:04:04;9.95;;;5.93;;
21430;SDS011;10876;49.038;10.608;2022-08-30T02:06:32;8.18;;;6.07;;
21430;SDS011;10876;49.038;10.608;2022-08-30T02:08:59;11.70;;;6.40;;
21430;SDS011;10876;49.038;10.608;2022-08-30T02:11:27;11.88;;;5.72;;
21430;SDS011;10876;49.038;10.608;2022-08-30T02:13:54;10.70;;;5.93;;
21430;SDS011;10876;49.038;10.608;2022-08-30T02:16:23;11.30;;;6.30;;
21430;SDS011;10876;49.038;10.608;2022-08-30T02:18:52;7.75;;;5.53;;
21430;SDS011;10876;49.038;10.608;2022-08-30T02:21:21;9.27;;;6.82;;
21430;SDS011;10876;49.038;10.608;2022-08-30T02:23:48;12.48;;;6.43;;
21430;SDS011;10876;49.038;10.608;2022-08-30T02:26:16;10.10;;;7.05;;
21430;SDS011;10876;49.038;10.608;2022-08-30T02:28:43;7.93;;;6.00;;
21430;SDS011;10876;49.038;10.608;2022-08-30T02:31:11;8.60;;;6.07;;
21430;SDS011;10876;49.038;10.608;2022-08-30T02:33:39;7.88;;;5.53;;
21430;SDS011;10876;49.038;10.608;2022-08-30T02:36:07;9.43;;;6.43;;
21430;SDS011;10876;49.038;10.608;2022-08-30T02:38:34;9.38;;;6.20;;
21430;SDS011;10876;49.038;10.608;2022-08-30T02:41:01;8.43;;;5.90;;
21430;SDS011;10876;49.038;10.608;2022-08-30T02:43:29;7.18;;;5.95;;
21430;SDS011;10876;49.038;10.608;2022-08-30T02:45:56;8.00;;;5.75;;
21430;SDS011;10876;49.038;10.608;2022-08-30T02:48:23;9.30;;;6.25;;
21430;SDS011;10876;49.038;10.608;2022-08-30T02:50:51;9.27;;;6.07;;
21430;SDS011;10876;49.038;10.608;2022-08-30T02:53:19;9.43;;;5.93;;
21430;SDS011;10876;49.038;10.608;2022-08-30T02:55:47;10.27;;;6.47;;
21430;SDS011;10876;49.038;10.608;2022-08-30T02:58:14;7.97;;;5.53;;
21430;SDS011;10876;49.038;10.608;2022-08-30T03:00:41;10.65;;;6.57;;
21430;SDS011;10876;49.038;10.608;2022-08-30T03:03:08;9.23;;;6.05;;
21430;SDS011;10876;49.038;10.608;2022-08-30T03:05:35;8.55;;;6.03;;
21430;SDS011;10876;49.038;10.608;2022-08-30T03:08:04;8.52;;;5.80;;
21430;SDS011;10876;49.038;10.608;2022-08-30T03:10:32;9.65;;;6.38;;
21430;SDS011;10876;49.038;10.608;2022-08-30T03:12:59;13.00;;;7.10;;
21430;SDS011;10876;49.038;10.608;2022-08-30T03:15:26;13.98;;;7.18;;
21430;SDS011;10876;49.038;10.608;2022-08-30T03:17:53;11.30;;;6.72;;
21430;SDS011;10876;49.038;10.608;2022-08-30T03:20:21;8.35;;;5.93;;
21430;SDS011;10876;49.038;10.608;2022-08-30T03:22:49;9.00;;;5.95;;
21430;SDS011;10876;49.038;10.608;2022-08-30T03:25:18;9.13;;;6.53;;
21430;SDS011;10876;49.038;10.608;2022-08-30T03:27:46;10.95;;;6.38;;
21430;SDS011;10876;49.038;10.608;2022-08-30T03:30:15;8.98;;;5.95;;
21430;SDS011;10876;49.038;10.608;2022-08-30T03:32:42;8.85;;;6.15;;
21430;SDS011;10876;49.038;10.608;2022-08-30T03:35:09;9.30;;;6.00;;
21430;SDS011;10876;49.038;10.608;2022-08-30T03:37:37;8.30;;;6.10;;
21430;SDS011;10876;49.038;10.608;2022-08-30T03:40:04;9.55;;;6.28;;
21430;SDS011;10876;49.038;10.608;2022-08-30T03:42:34;8.82;;;6.45;;
21430;SDS011;10876;49.038;10.608;2022-08-30T03:45:02;7.72;;;5.75;;
21430;SDS011;10876;49.038;10.608;2022-08-30T03:47:30;9.25;;;6.28;;
21430;SDS011;10876;49.038;10.608;2022-08-30T03:49:57;8.90;;;5.95;;
21430;SDS011;10876;49.038;10.608;2022-08-30T03:52:24;8.57;;;5.88;;
21430;SDS011;10876;49.038;10.608;2022-08-30T03:54:51;7.68;;;5.97;;
21430;SDS011;10876;49.038;10.608;2022-08-30T03:57:18;8.57;;;5.95;;
21430;SDS011;10876;49.038;10.608;2022-08-30T03:59:47;8.07;;;6.03;;
21430;SDS011;10876;49.038;10.608;2022-08-30T04:02:14;8.93;;;6.25;;
21430;SDS011;10876;49.038;10.608;2022-08-30T04:04:40;10.02;;;6.80;;
21430;SDS011;10876;49.038;10.608;2022-08-30T04:07:07;9.90;;;6.10;;
21430;SDS011;10876;49.038;10.608;2022-08-30T04:09:34;13.45;;;6.15;;
21430;SDS011;10876;49.038;10.608;2022-08-30T04:12:02;10.48;;;6.10;;
21430;SDS011;10876;49.038;10.608;2022-08-30T04:14:29;9.60;;;5.97;;
21430;SDS011;10876;49.038;10.608;2022-08-30T04:16:57;10.32;;;6.68;;
21430;SDS011;10876;49.038;10.608;2022-08-30T04:19:24;9.25;;;6.07;;
21430;SDS011;10876;49.038;10.608;2022-08-30T04:21:51;9.38;;;6.38;;
21430;SDS011;10876;49.038;10.608;2022-08-30T04:24:18;12.10;;;6.35;;
21430;SDS011;10876;49.038;10.608;2022-08-30T04:26:45;9.55;;;6.35;;
21430;SDS011;10876;49.038;10.608;2022-08-30T04:29:12;9.05;;;6.00;;
21430;SDS011;10876;49.038;10.608;2022-08-30T04:31:41;9.23;;;6.22;;
21430;SDS011;10876;49.038;10.608;2022-08-30T04:34:09;9.02;;;6.43;;
21430;SDS011;10876;49.038;10.608;2022-08-30T04:36:37;7.57;;;6.03;;
21430;SDS011;10876;49.038;10.608;2022-08-30T04:39:04;9.15;;;6.10;;
21430;SDS011;10876;49.038;10.608;2022-08-30T04:41:32;8.75;;;6.30;;
21430;SDS011;10876;49.038;10.608;2022-08-30T04:44:00;12.35;;;5.70;;
21430;SDS011;10876;49.038;10.608;2022-08-30T04:46:28;8.13;;;5.30;;
21430;SDS011;10876;49.038;10.608;2022-08-30T04:48:55;6.57;;;5.20;;
21430;SDS011;10876;49.038;10.608;2022-08-30T04:51:23;11.38;;;6.20;;
21430;SDS011;10876;49.038;10.608;2022-08-30T04:53:50;6.22;;;4.80;;
21430;SDS011;10876;49.038;10.608;2022-08-30T04:56:18;8.30;;;5.07;;
21430;SDS011;10876;49.038;10.608;2022-08-30T04:58:48;9.30;;;5.80;;
21430;SDS011;10876;49.038;10.608;2022-08-30T05:01:18;9.13;;;6.10;;
21430;SDS011;10876;49.038;10.608;2022-08-30T05:03:46;7.57;;;5.75;;
21430;SDS011;10876;49.038;10.608;2022-08-30T05:06:14;8.80;;;6.15;;
21430;SDS011;10876;49.038;10.608;2022-08-30T05:08:43;11.05;;;6.50;;
21430;SDS011;10876;49.038;10.608;2022-08-30T05:11:10;8.13;;;5.55;;
21430;SDS011;10876;49.038;10.608;2022-08-30T05:13:37;9.60;;;6.07;;
21430;SDS011;10876;49.038;10.608;2022-08-30T05:16:06;10.23;;;6.20;;
21430;SDS011;10876;49.038;10.608;2022-08-30T05:18:33;8.25;;;5.65;;
21430;SDS011;10876;49.038;10.608;2022-08-30T05:21:05;9.02;;;6.35;;
21430;SDS011;10876;49.038;10.608;2022-08-30T05:23:33;7.85;;;6.00;;
21430;SDS011;10876;49.038;10.608;2022-08-30T05:26:04;8.07;;;6.15;;
21430;SDS011;10876;49.038;10.608;2022-08-30T05:28:33;7.40;;;6.00;;
21430;SDS011;10876;49.038;10.608;2022-08-30T05:31:00;9.73;;;6.10;;
21430;SDS011;10876;49.038;10.608;2022-08-30T05:33:28;7.55;;;5.10;;
21430;SDS011;10876;49.038;10.608;2022-08-30T05:35:55;9.48;;;6.38;;
21430;SDS011;10876;49.038;10.608;2022-08-30T05:38:22;10.80;;;7.45;;
21430;SDS011;10876;49.038;10.608;2022-08-30T05:40:49;10.02;;;6.90;;
21430;SDS011;10876;49.038;10.608;2022-08-30T05:43:20;9.68;;;6.40;;
21430;SDS011;10876;49.038;10.608;2022-08-30T05:45:47;11.77;;;6.50;;
21430;SDS011;10876;49.038;10.608;2022-08-30T05:48:14;11.45;;;6.93;;
21430;SDS011;10876;49.038;10.608;2022-08-30T05:50:41;10.55;;;6.75;;
21430;SDS011;10876;49.038;10.608;2022-08-30T05:53:07;12.10;;;6.80;;
21430;SDS011;10876;49.038;10.608;2022-08-30T05:55:34;8.88;;;6.43;;
21430;SDS011;10876;49.038;10.608;2022-08-30T05:58:01;11.30;;;6.22;;
21430;SDS011;10876;49.038;10.608;2022-08-30T06:00:30;10.13;;;6.38;;
21430;SDS011;10876;49.038;10.608;2022-08-30T06:02:57;13.50;;;6.68;;
21430;SDS011;10876;49.038;10.608;2022-08-30T06:05:24;9.68;;;6.28;;
21430;SDS011;10876;49.038;10.608;2022-08-30T06:07:51;9.30;;;6.32;;
21430;SDS011;10876;49.038;10.608;2022-08-30T06:10:18;13.93;;;6.88;;
21430;SDS011;10876;49.038;10.608;2022-08-30T06:12:45;10.55;;;6.95;;
21430;SDS011;10876;49.038;10.608;2022-08-30T06:15:12;12.32;;;6.45;;
21430;SDS011;10876;49.038;10.608;2022-08-30T06:17:40;10.90;;;6.68;;
21430;SDS011;10876;49.038;10.608;2022-08-30T06:20:08;9.25;;;6.32;;
21430;SDS011;10876;49.038;10.608;2022-08-30T06:22:36;9.90;;;5.97;;
21430;SDS011;10876;49.038;10.608;2022-08-30T06:25:04;18.42;;;7.13;;
21430;SDS011;10876;49.038;10.608;2022-08-30T06:27:31;11.55;;;6.63;;
21430;SDS011;10876;49.038;10.608;2022-08-30T06:29:59;9.35;;;6.57;;
21430;SDS011;10876;49.038;10.608;2022-08-30T06:32:26;12.00;;;7.93;;
21430;SDS011;10876;49.038;10.608;2022-08-30T06:34:54;10.68;;;7.80;;
21430;SDS011;10876;49.038;10.608;2022-08-30T06:37:21;11.73;;;7.93;;
21430;SDS011;10876;49.038;10.608;2022-08-30T06:39:48;13.10;;;7.78;;
21430;SDS011;10876;49.038;10.608;2022-08-30T06:42:15;10.02;;;7.20;;
21430;SDS011;10876;49.038;10.608;2022-08-30T06:44:42;11.65;;;8.13;;
21430;SDS011;10876;49.038;10.608;2022-08-30T06:47:09;10.80;;;7.28;;
21430;SDS011;10876;49.038;10.608;2022-08-30T06:49:36;12.82;;;7.95;;
21430;SDS011;10876;49.038;10.608;2022-08-30T06:52:05;13.43;;;7.53;;
21430;SDS011;10876;49.038;10.608;2022-08-30T06:54:32;14.18;;;8.80;;
21430;SDS011;10876;49.038;10.608;2022-08-30T06:56:59;13.75;;;7.82;;
21430;SDS011;10876;49.038;10.608;2022-08-30T06:59:26;10.68;;;7.72;;
21430;SDS011;10876;49.038;10.608;2022-08-30T07:01:53;12.25;;;8.25;;
21430;SDS011;10876;49.038;10.608;2022-08-30T07:04:20;13.23;;;8.40;;
21430;SDS011;10876;49.038;10.608;2022-08-30T07:06:47;10.38;;;8.13;;
21430;SDS011;10876;49.038;10.608;2022-08-30T07:09:15;12.70;;;8.50;;
21430;SDS011;10876;49.038;10.608;2022-08-30T07:11:43;11.35;;;7.63;;
21430;SDS011;10876;49.038;10.608;2022-08-30T07:14:10;11.10;;;8.25;;
21430;SDS011;10876;49.038;10.608;2022-08-30T07:16:37;13.43;;;7.80;;
21430;SDS011;10876;49.038;10.608;2022-08-30T07:19:04;11.20;;;8.10;;
21430;SDS011;10876;49.038;10.608;2022-08-30T07:21:31;11.95;;;8.02;;
21430;SDS011;10876;49.038;10.608;2022-08-30T07:24:00;9.20;;;7.45;;
21430;SDS011;10876;49.038;10.608;2022-08-30T07:26:29;12.98;;;8.00;;
21430;SDS011;10876;49.038;10.608;2022-08-30T07:28:58;10.40;;;7.45;;
21430;SDS011;10876;49.038;10.608;2022-08-30T07:31:26;16.02;;;8.52;;
21430;SDS011;10876;49.038;10.608;2022-08-30T07:33:54;10.45;;;7.15;;
21430;SDS011;10876;49.038;10.608;2022-08-30T07:36:21;10.65;;;7.28;;
21430;SDS011;10876;49.038;10.608;2022-08-30T07:38:49;10.52;;;7.25;;
21430;SDS011;10876;49.038;10.608;2022-08-30T07:41:17;9.63;;;7.03;;
21430;SDS011;10876;49.038;10.608;2022-08-30T07:43:48;11.70;;;6.60;;
21430;SDS011;10876;49.038;10.608;2022-08-30T07:46:15;10.73;;;6.65;;
21430;SDS011;10876;49.038;10.608;2022-08-30T07:48:43;8.15;;;6.22;;
21430;SDS011;10876;49.038;10.608;2022-08-30T07:51:11;7.70;;;5.65;;
21430;SDS011;10876;49.038;10.608;2022-08-30T07:53:39;9.63;;;6.70;;
21430;SDS011;10876;49.038;10.608;2022-08-30T07:56:06;10.75;;;6.32;;
21430;SDS011;10876;49.038;10.608;2022-08-30T07:58:33;9.57;;;6.28;;
21430;SDS011;10876;49.038;10.608;2022-08-30T08:01:04;11.35;;;5.40;;
21430;SDS011;10876;49.038;10.608;2022-08-30T08:03:33;8.77;;;6.35;;
21430;SDS011;10876;49.038;10.608;2022-08-30T08:06:01;8.57;;;5.88;;
21430;SDS011;10876;49.038;10.608;2022-08-30T08:08:29;11.82;;;5.55;;
21430;SDS011;10876;49.038;10.608;2022-08-30T08:10:57;10.45;;;5.95;;
21430;SDS011;10876;49.038;10.608;2022-08-30T08:13:24;8.32;;;6.63;;
21430;SDS011;10876;49.038;10.608;2022-08-30T08:15:51;12.07;;;8.52;;
21430;SDS011;10876;49.038;10.608;2022-08-30T08:18:19;12.00;;;6.95;;
21430;SDS011;10876;49.038;10.608;2022-08-30T08:20:46;9.50;;;6.85;;
21430;SDS011;10876;49.038;10.608;2022-08-30T08:23:14;8.68;;;5.93;;
21430;SDS011;10876;49.038;10.608;2022-08-30T08:25:41;7.72;;;5.80;;
21430;SDS011;10876;49.038;10.608;2022-08-30T08:28:08;11.77;;;6.88;;
21430;SDS011;10876;49.038;10.608;2022-08-30T08:30:35;10.93;;;6.78;;
21430;SDS011;10876;49.038;10.608;2022-08-30T08:33:03;8.35;;;5.82;;
21430;SDS011;10876;49.038;10.608;2022-08-30T08:35:32;9.02;;;5.95;;
21430;SDS011;10876;49.038;10.608;2022-08-30T08:37:59;7.65;;;5.97;;
21430;SDS011;10876;49.038;10.608;2022-08-30T08:40:26;9.32;;;5.90;;
21430;SDS011;10876;49.038;10.608;2022-08-30T08:42:58;9.48;;;6.50;;
21430;SDS011;10876;49.038;10.608;2022-08-30T08:45:31;9.02;;;5.65;;
21430;SDS011;10876;49.038;10.608;2022-08-30T08:48:07;9.07;;;6.57;;
21430;SDS011;10876;49.038;10.608;2022-08-30T08:50:38;9.55;;;6.07;;
21430;SDS011;10876;49.038;10.608;2022-08-30T08:53:28;8.60;;;5.95;;
21430;SDS011;10876;49.038;10.608;2022-08-30T08:56:03;11.82;;;6.15;;
21430;SDS011;10876;49.038;10.608;2022-08-30T08:58:33;7.25;;;5.57;;
21430;SDS011;10876;49.038;10.608;2022-08-30T09:01:08;9.40;;;5.70;;
21430;SDS011;10876;49.038;10.608;2022-08-30T09:03:36;10.73;;;5.88;;
21430;SDS011;10876;49.038;10.608;2022-08-30T09:06:10;6.95;;;5.38;;
21430;SDS011;10876;49.038;10.608;2022-08-30T09:08:49;6.85;;;4.72;;
21430;SDS011;10876;49.038;10.608;2022-08-30T09:11:26;9.75;;;5.15;;
21430;SDS011;10876;49.038;10.608;2022-08-30T09:13:56;6.28;;;5.35;;
21430;SDS011;10876;49.038;10.608;2022-08-30T09:19:35;8.30;;;5.40;;
21430;SDS011;10876;49.038;10.608;2022-08-30T09:22:14;7.22;;;4.88;;
21430;SDS011;10876;49.038;10.608;2022-08-30T09:24:48;7.85;;;5.20;;
21430;SDS011;10876;49.038;10.608;2022-08-30T09:27:18;7.43;;;4.80;;
21430;SDS011;10876;49.038;10.608;2022-08-30T09:29:48;8.70;;;4.75;;
21430;SDS011;10876;49.038;10.608;2022-08-30T09:32:25;6.13;;;4.25;;
21430;SDS011;10876;49.038;10.608;2022-08-30T09:34:57;8.23;;;4.57;;
21430;SDS011;10876;49.038;10.608;2022-08-30T09:37:26;5.20;;;4.20;;
21430;SDS011;10876;49.038;10.608;2022-08-30T09:39:57;6.25;;;4.57;;
21430;SDS011;10876;49.038;10.608;2022-08-30T09:42:25;6.10;;;4.57;;
21430;SDS011;10876;49.038;10.608;2022-08-30T09:44:55;5.80;;;4.10;;
21430;SDS011;10876;49.038;10.608;2022-08-30T09:47:37;6.80;;;3.75;;
21430;SDS011;10876;49.038;10.608;2022-08-30T09:50:06;5.63;;;4.00;;
21430;SDS011;10876;49.038;10.608;2022-08-30T09:52:40;4.50;;;3.13;;
21430;SDS011;10876;49.038;10.608;2022-08-30T09:55:21;6.28;;;3.50;;
21430;SDS011;10876;49.038;10.608;2022-08-30T09:57:56;6.45;;;3.83;;
21430;SDS011;10876;49.038;10.608;2022-08-30T10:00:33;7.45;;;3.72;;
21430;SDS011;10876;49.038;10.608;2022-08-30T10:03:14;6.10;;;3.38;;
21430;SDS011;10876;49.038;10.608;2022-08-30T10:05:57;5.55;;;3.58;;
21430;SDS011;10876;49.038;10.608;2022-08-30T10:08:37;5.13;;;3.90;;
21430;SDS011;10876;49.038;10.608;2022-08-30T10:11:14;6.30;;;4.05;;
21430;SDS011;10876;49.038;10.608;2022-08-30T10:13:52;4.97;;;3.88;;
21430;SDS011;10876;49.038;10.608;2022-08-30T10:16:34;6.07;;;3.65;;
21430;SDS011;10876;49.038;10.608;2022-08-30T10:19:14;4.90;;;3.40;;
21430;SDS011;10876;49.038;10.608;2022-08-30T10:21:55;5.07;;;4.03;;
21430;SDS011;10876;49.038;10.608;2022-08-30T10:24:27;7.05;;;3.65;;
21430;SDS011;10876;49.038;10.608;2022-08-30T10:27:01;6.38;;;3.60;;
21430;SDS011;10876;49.038;10.608;2022-08-30T10:29:35;4.22;;;3.25;;
21430;SDS011;10876;49.038;10.608;2022-08-30T10:32:09;6.15;;;3.67;;
21430;SDS011;10876;49.038;10.608;2022-08-30T10:34:43;4.57;;;3.28;;
21430;SDS011;10876;49.038;10.608;2022-08-30T10:37:15;7.28;;;3.75;;
21430;SDS011;10876;49.038;10.608;2022-08-30T10:39:48;8.88;;;3.90;;
21430;SDS011;10876;49.038;10.608;2022-08-30T10:42:19;4.97;;;3.17;;
21430;SDS011;10876;49.038;10.608;2022-08-30T10:44:51;4.93;;;3.65;;
21430;SDS011;10876;49.038;10.608;2022-08-30T10:47:27;7.65;;;3.60;;
21430;SDS011;10876;49.038;10.608;2022-08-30T10:50:03;3.88;;;3.38;;
21430;SDS011;10876;49.038;10.608;2022-08-30T10:52:38;4.50;;;3.70;;
21430;SDS011;10876;49.038;10.608;2022-08-30T10:55:12;5.55;;;3.38;;
21430;SDS011;10876;49.038;10.608;2022-08-30T10:57:41;5.90;;;4.15;;
21430;SDS011;10876;49.038;10.608;2022-08-30T11:00:10;7.68;;;3.70;;
21430;SDS011;10876;49.038;10.608;2022-08-30T11:02:47;7.40;;;4.03;;
21430;SDS011;10876;49.038;10.608;2022-08-30T11:05:42;5.60;;;3.45;;
21430;SDS011;10876;49.038;10.608;2022-08-30T11:08:24;5.65;;;3.42;;
21430;SDS011;10876;49.038;10.608;2022-08-30T11:11:08;5.30;;;3.67;;
21430;SDS011;10876;49.038;10.608;2022-08-30T11:13:42;5.50;;;3.90;;
21430;SDS011;10876;49.038;10.608;2022-08-30T11:16:12;6.38;;;3.38;;
21430;SDS011;10876;49.038;10.608;2022-08-30T11:18:42;4.95;;;3.30;;
21430;SDS011;10876;49.038;10.608;2022-08-30T11:21:18;5.85;;;3.55;;
21430;SDS011;10876;49.038;10.608;2022-08-30T11:23:56;5.60;;;3.17;;
21430;SDS011;10876;49.038;10.608;2022-08-30T11:32:22;4.03;;;2.85;;
21430;SDS011;10876;49.038;10.608;2022-08-30T11:35:04;6.07;;;2.92;;
21430;SDS011;10876;49.038;10.608;2022-08-30T11:37:33;4.93;;;3.00;;
21430;SDS011;10876;49.038;10.608;2022-08-30T11:40:04;5.22;;;3.70;;
21430;SDS011;10876;49.038;10.608;2022-08-30T11:42:40;4.32;;;2.80;;
21430;SDS011;10876;49.038;10.608;2022-08-30T11:51:12;3.78;;;3.20;;
21430;SDS011;10876;49.038;10.608;2022-08-30T11:54:18;4.13;;;3.22;;
21430;SDS011;10876;49.038;10.608;2022-08-30T11:57:00;6.15;;;3.65;;
21430;SDS011;10876;49.038;10.608;2022-08-30T11:59:36;5.80;;;3.33;;
21430;SDS011;10876;49.038;10.608;2022-08-30T12:05:08;4.30;;;2.92;;
21430;SDS011;10876;49.038;10.608;2022-08-30T12:17:26;5.50;;;3.22;;
21430;SDS011;10876;49.038;10.608;2022-08-30T12:20:19;3.92;;;3.08;;
21430;SDS011;10876;49.038;10.608;2022-08-30T12:22:49;4.40;;;3.33;;
21430;SDS011;10876;49.038;10.608;2022-08-30T12:25:18;3.97;;;3.08;;
21430;SDS011;10876;49.038;10.608;2022-08-30T12:27:50;6.47;;;3.22;;
21430;SDS011;10876;49.038;10.608;2022-08-30T12:30:34;4.95;;;3.00;;
21430;SDS011;10876;49.038;10.608;2022-08-30T12:33:04;3.95;;;3.15;;
21430;SDS011;10876;49.038;10.608;2022-08-30T12:35:31;4.72;;;2.90;;
21430;SDS011;10876;49.038;10.608;2022-08-30T12:38:02;4.82;;;2.95;;
21430;SDS011;10876;49.038;10.608;2022-08-30T12:40:31;4.60;;;3.42;;
21430;SDS011;10876;49.038;10.608;2022-08-30T12:43:01;3.95;;;3.03;;
21430;SDS011;10876;49.038;10.608;2022-08-30T12:45:31;3.80;;;3.20;;
21430;SDS011;10876;49.038;10.608;2022-08-30T12:48:06;5.60;;;3.40;;
21430;SDS011;10876;49.038;10.608;2022-08-30T12:50:42;5.78;;;3.55;;
21430;SDS011;10876;49.038;10.608;2022-08-30T12:53:20;4.75;;;3.17;;
21430;SDS011;10876;49.038;10.608;2022-08-30T12:55:53;6.57;;;3.15;;
21430;SDS011;10876;49.038;10.608;2022-08-30T12:58:33;4.38;;;3.25;;
21430;SDS011;10876;49.038;10.608;2022-08-30T13:01:14;10.73;;;3.15;;
21430;SDS011;10876;49.038;10.608;2022-08-30T13:03:54;5.03;;;3.38;;
21430;SDS011;10876;49.038;10.608;2022-08-30T13:06:40;7.28;;;3.63;;
21430;SDS011;10876;49.038;10.608;2022-08-30T13:09:20;4.72;;;3.13;;
21430;SDS011;10876;49.038;10.608;2022-08-30T13:11:51;6.47;;;3.30;;
21430;SDS011;10876;49.038;10.608;2022-08-30T13:14:20;5.13;;;3.35;;
21430;SDS011;10876;49.038;10.608;2022-08-30T13:17:04;4.57;;;3.25;;
21430;SDS011;10876;49.038;10.608;2022-08-30T13:19:37;3.50;;;3.00;;
21430;SDS011;10876;49.038;10.608;2022-08-30T13:22:05;3.90;;;2.97;;
21430;SDS011;10876;49.038;10.608;2022-08-30T13:24:49;5.00;;;3.53;;
21430;SDS011;10876;49.038;10.608;2022-08-30T13:27:17;3.97;;;3.15;;
21430;SDS011;10876;49.038;10.608;2022-08-30T13:29:44;3.83;;;2.78;;
21430;SDS011;10876;49.038;10.608;2022-08-30T13:32:11;3.78;;;3.05;;
21430;SDS011;10876;49.038;10.608;2022-08-30T13:34:40;4.03;;;2.83;;
21430;SDS011;10876;49.038;10.608;2022-08-30T13:37:08;3.95;;;2.97;;
21430;SDS011;10876;49.038;10.608;2022-08-30T13:39:38;4.30;;;3.00;;
21430;SDS011;10876;49.038;10.608;2022-08-30T13:42:06;4.28;;;3.35;;
21430;SDS011;10876;49.038;10.608;2022-08-30T13:44:33;5.70;;;3.05;;
21430;SDS011;10876;49.038;10.608;2022-08-30T13:47:00;3.13;;;2.83;;
21430;SDS011;10876;49.038;10.608;2022-08-30T13:49:28;4.60;;;3.00;;
21430;SDS011;10876;49.038;10.608;2022-08-30T13:51:58;4.15;;;2.95;;
21430;SDS011;10876;49.038;10.608;2022-08-30T13:54:25;4.15;;;3.10;;
21430;SDS011;10876;49.038;10.608;2022-08-30T13:56:52;3.45;;;3.00;;
21430;SDS011;10876;49.038;10.608;2022-08-30T13:59:20;6.72;;;2.88;;
21430;SDS011;10876;49.038;10.608;2022-08-30T14:01:48;3.60;;;3.05;;
21430;SDS011;10876;49.038;10.608;2022-08-30T14:04:15;5.50;;;3.20;;
21430;SDS011;10876;49.038;10.608;2022-08-30T14:06:42;4.60;;;3.30;;
21430;SDS011;10876;49.038;10.608;2022-08-30T14:09:11;3.70;;;2.88;;
21430;SDS011;10876;49.038;10.608;2022-08-30T14:11:39;5.13;;;3.25;;
21430;SDS011;10876;49.038;10.608;2022-08-30T14:14:06;6.20;;;3.20;;
21430;SDS011;10876;49.038;10.608;2022-08-30T14:16:34;4.85;;;2.80;;
21430;SDS011;10876;49.038;10.608;2022-08-30T14:19:03;4.28;;;3.00;;
21430;SDS011;10876;49.038;10.608;2022-08-30T14:21:31;6.15;;;3.03;;
21430;SDS011;10876;49.038;10.608;2022-08-30T14:23:59;2.92;;;2.63;;
21430;SDS011;10876;49.038;10.608;2022-08-30T14:26:28;3.67;;;2.70;;
21430;SDS011;10876;49.038;10.608;2022-08-30T14:28:57;4.15;;;2.95;;
21430;SDS011;10876;49.038;10.608;2022-08-30T14:31:24;4.10;;;2.65;;
21430;SDS011;10876;49.038;10.608;2022-08-30T14:33:51;4.07;;;2.78;;
21430;SDS011;10876;49.038;10.608;2022-08-30T14:36:18;5.25;;;3.00;;
21430;SDS011;10876;49.038;10.608;2022-08-30T14:38:46;4.35;;;2.63;;
21430;SDS011;10876;49.038;10.608;2022-08-30T14:41:13;4.35;;;2.55;;
21430;SDS011;10876;49.038;10.608;2022-08-30T14:43:41;7.18;;;3.10;;
21430;SDS011;10876;49.038;10.608;2022-08-30T14:46:08;3.10;;;2.75;;
21430;SDS011;10876;49.038;10.608;2022-08-30T14:48:35;4.82;;;2.80;;
21430;SDS011;10876;49.038;10.608;2022-08-30T14:51:09;4.78;;;2.78;;
21430;SDS011;10876;49.038;10.608;2022-08-30T14:53:37;2.92;;;2.40;;
21430;SDS011;10876;49.038;10.608;2022-08-30T14:56:05;5.38;;;2.80;;
21430;SDS011;10876;49.038;10.608;2022-08-30T14:58:34;3.78;;;2.70;;
21430;SDS011;10876;49.038;10.608;2022-08-30T15:01:02;3.15;;;2.65;;
21430;SDS011;10876;49.038;10.608;2022-08-30T15:03:32;3.85;;;2.42;;
21430;SDS011;10876;49.038;10.608;2022-08-30T15:05:59;4.00;;;2.60;;
21430;SDS011;10876;49.038;10.608;2022-08-30T15:08:27;4.40;;;2.60;;
21430;SDS011;10876;49.038;10.608;2022-08-30T15:10:54;3.80;;;2.78;;
21430;SDS011;10876;49.038;10.608;2022-08-30T15:13:21;3.97;;;2.75;;